Terminal Aerodrome Forecast
Issued by NWS

Home | Current Version | Previous Version | Text Only | Print | Product List | Glossary On
Versions: 1 2 3 4 5 6 7 8 9 10 11 12 13 14 15
000
FTUS45 KRIW 270200 AAB
TAFRKS
TAF AMD
KRKS 270217Z 2702/2724 07005KT P6SM VCSH SCT020 BKN040
      TEMPO 2703/2705 5SM -SN BKN030
     FM270700 24008KT P6SM SCT060
     FM271700 24020G28KT P6SM SCT025 BKN060=

USA.gov is the U.S. government's official web portal to all federal, state and local government web resources and services.